createdAt,value
2018-04-11T00:01:29.735Z,19.58
2018-04-11T00:04:39.690Z,18.10
2018-04-11T00:07:50.411Z,17.35
2018-04-11T00:11:00.180Z,17.45
2018-04-11T00:14:10.596Z,19.25
2018-04-11T00:17:21.240Z,16.98
2018-04-11T00:20:31.361Z,17.45
2018-04-11T00:23:42.169Z,18.12
2018-04-11T00:26:52.639Z,18.10
2018-04-11T00:30:02.532Z,18.77
2018-04-11T00:33:13.413Z,20.65
2018-04-11T00:36:24.167Z,18.23
2018-04-11T00:39:34.449Z,17.90
2018-04-11T00:42:44.384Z,11.18
2018-04-11T00:45:54.198Z,8.73
2018-04-11T00:49:04.707Z,9.30
2018-04-11T00:52:14.677Z,17.52
2018-04-11T00:55:24.733Z,8.43
2018-04-11T00:58:34.767Z,10.05
2018-04-11T01:01:44.544Z,10.68
2018-04-11T01:04:54.082Z,8.15
2018-04-11T01:08:04.444Z,11.10
2018-04-11T01:11:15.592Z,8.93
2018-04-11T01:14:25.606Z,11.30
2018-04-11T01:17:35.641Z,9.07
2018-04-11T01:20:45.534Z,8.88
2018-04-11T01:23:56.847Z,9.45
2018-04-11T01:27:06.852Z,11.82
2018-04-11T01:30:16.725Z,8.40
2018-04-11T01:33:27.421Z,12.37
2018-04-11T01:36:37.317Z,9.65
2018-04-11T01:39:47.857Z,14.65
2018-04-11T01:42:58.010Z,7.57
2018-04-11T01:46:08.436Z,10.45
2018-04-11T01:49:18.772Z,11.65
2018-04-11T01:52:30.181Z,8.32
2018-04-11T01:55:40.126Z,11.07
2018-04-11T01:58:50.166Z,10.70
2018-04-11T02:02:00.108Z,10.90
2018-04-11T02:05:11.131Z,9.52
2018-04-11T02:08:21.899Z,14.35
2018-04-11T02:11:31.546Z,9.95
2018-04-11T02:14:41.096Z,10.80
2018-04-11T02:17:51.036Z,10.40
2018-04-11T02:21:02.120Z,8.55
2018-04-11T02:24:12.124Z,10.23
2018-04-11T02:27:22.693Z,12.35
2018-04-11T02:30:32.769Z,10.60
2018-04-11T02:33:42.541Z,12.02
2018-04-11T02:36:53.080Z,13.10
2018-04-11T02:40:03.714Z,9.40
2018-04-11T02:43:13.496Z,10.20
2018-04-11T02:46:23.329Z,10.10
2018-04-11T02:49:33.280Z,9.40
2018-04-11T02:52:44.007Z,13.15
2018-04-11T02:55:54.102Z,13.20
2018-04-11T02:59:04.068Z,9.80
2018-04-11T03:02:14.066Z,11.95
2018-04-11T03:05:24.304Z,8.85
2018-04-11T03:08:34.378Z,9.50
2018-04-11T03:11:44.374Z,15.10
2018-04-11T03:14:54.800Z,15.93
2018-04-11T03:18:05.182Z,9.90
2018-04-11T03:21:15.728Z,8.85
2018-04-11T03:24:25.764Z,8.43
2018-04-11T03:27:35.981Z,14.15
2018-04-11T03:30:46.162Z,8.43
2018-04-11T03:33:56.269Z,9.68
2018-04-11T03:37:06.167Z,8.73
2018-04-11T03:40:16.026Z,14.60
2018-04-11T03:43:26.155Z,17.42
2018-04-11T03:46:36.347Z,19.05
2018-04-11T03:49:46.590Z,16.80
2018-04-11T03:52:56.722Z,13.95
2018-04-11T03:56:06.938Z,17.37
2018-04-11T03:59:17.029Z,10.27
2018-04-11T04:02:28.503Z,13.45
2018-04-11T04:05:38.772Z,11.55
2018-04-11T04:08:48.679Z,14.02
2018-04-11T04:11:58.818Z,14.25
2018-04-11T04:15:20.104Z,15.23
2018-04-11T04:22:07.585Z,12.90
2018-04-11T04:25:17.722Z,12.95
2018-04-11T04:28:27.713Z,14.38
2018-04-11T04:31:37.646Z,10.45
2018-04-11T04:34:47.550Z,14.65
2018-04-11T04:37:57.275Z,22.00
2018-04-11T04:41:07.275Z,15.93
2018-04-11T04:44:17.316Z,15.65
2018-04-11T04:47:27.341Z,17.98
2018-04-11T04:50:37.907Z,21.17
2018-04-11T04:53:48.139Z,17.67
2018-04-11T04:56:58.326Z,15.32
2018-04-11T05:00:08.137Z,15.18
2018-04-11T05:03:18.190Z,24.42
2018-04-11T05:06:28.421Z,22.33
2018-04-11T05:09:38.508Z,15.88
2018-04-11T05:12:48.761Z,17.35
2018-04-11T05:15:58.607Z,19.25
2018-04-11T05:19:08.906Z,11.80
2018-04-11T05:22:18.651Z,20.08
2018-04-11T05:25:29.695Z,15.18
2018-04-11T05:28:39.384Z,17.45
2018-04-11T05:31:49.624Z,20.45
2018-04-11T05:34:59.222Z,17.35
2018-04-11T05:38:09.795Z,13.50
2018-04-11T05:41:20.035Z,16.20
2018-04-11T05:44:30.245Z,12.13
2018-04-11T05:47:40.843Z,13.25
2018-04-11T05:50:51.106Z,12.35
2018-04-11T05:54:02.185Z,18.85
2018-04-11T05:57:12.477Z,12.60
2018-04-11T06:00:22.845Z,13.60
2018-04-11T06:03:32.834Z,15.00
2018-04-11T06:06:43.945Z,24.37
2018-04-11T06:09:54.190Z,12.43
2018-04-11T06:13:04.091Z,11.63
2018-04-11T06:16:14.139Z,21.00
2018-04-11T06:19:23.944Z,18.27
2018-04-11T06:22:33.853Z,18.77
2018-04-11T06:25:43.794Z,15.73
2018-04-11T06:28:54.264Z,22.00
2018-04-11T06:32:04.319Z,18.73
2018-04-11T06:35:14.332Z,18.70
2018-04-11T06:38:24.392Z,14.05
2018-04-11T06:41:35.577Z,17.05
2018-04-11T06:44:45.625Z,21.80
2018-04-11T06:47:56.374Z,16.33
2018-04-11T06:51:06.543Z,16.65
2018-04-11T06:54:17.228Z,20.58
2018-04-11T06:57:27.610Z,19.30
2018-04-11T07:00:37.726Z,19.65
2018-04-11T07:03:47.726Z,24.77
2018-04-11T07:06:57.872Z,20.55
2018-04-11T07:10:07.937Z,17.25
2018-04-11T07:13:18.115Z,19.87
2018-04-11T07:16:28.203Z,24.08
2018-04-11T07:19:38.117Z,18.00
2018-04-11T07:22:48.348Z,18.77
2018-04-11T07:25:58.503Z,18.83
2018-04-11T07:29:09.417Z,18.58
2018-04-11T07:32:19.336Z,16.50
2018-04-11T07:35:29.221Z,13.80
2018-04-11T07:38:39.111Z,17.67
2018-04-11T07:41:48.903Z,18.75
2018-04-11T07:44:58.884Z,25.80
2018-04-11T07:48:08.961Z,21.35
2018-04-11T07:51:19.261Z,19.67
2018-04-11T07:54:29.320Z,22.10
2018-04-11T07:57:40.122Z,24.23
2018-04-11T08:00:50.343Z,20.95
2018-04-11T08:04:00.284Z,24.95
2018-04-11T08:07:10.821Z,29.12
2018-04-11T08:10:21.536Z,26.15
2018-04-11T08:13:31.430Z,28.38
2018-04-11T08:16:41.720Z,20.12
2018-04-11T08:19:51.856Z,20.17
2018-04-11T08:23:01.989Z,27.90
2018-04-11T08:26:12.135Z,20.83
2018-04-11T08:29:22.150Z,25.60
2018-04-11T08:32:32.743Z,26.17
2018-04-11T08:35:43.209Z,19.90
2018-04-11T08:38:54.250Z,26.55
2018-04-11T08:42:05.455Z,26.35
2018-04-11T08:45:16.641Z,19.30
2018-04-11T08:48:27.546Z,16.42
2018-04-11T08:51:37.987Z,13.30
2018-04-11T08:54:48.898Z,15.65
2018-04-11T08:57:59.425Z,19.67
2018-04-11T09:01:10.023Z,15.63
2018-04-11T09:04:20.075Z,13.02
2018-04-11T09:07:31.972Z,15.35
2018-04-11T09:10:42.073Z,18.17
2018-04-11T09:13:52.245Z,18.58
2018-04-11T09:17:03.122Z,19.50
2018-04-11T09:20:13.590Z,30.37
2018-04-11T09:23:24.648Z,46.88
2018-04-11T09:26:34.510Z,17.35
2018-04-11T09:29:44.963Z,17.70
2018-04-11T09:32:56.496Z,20.55
2018-04-11T09:36:07.691Z,16.30
2018-04-11T09:39:18.141Z,18.70
2018-04-11T09:42:28.248Z,24.40
2018-04-11T09:45:38.454Z,27.17
2018-04-11T09:48:48.478Z,19.70
2018-04-11T09:51:58.737Z,20.35
2018-04-11T09:55:09.196Z,26.05
2018-04-11T09:58:19.516Z,23.00
2018-04-11T10:01:37.095Z,24.83
2018-04-11T10:04:47.324Z,23.98
2018-04-11T10:07:57.307Z,20.02
2018-04-11T10:11:07.442Z,25.92
2018-04-11T10:14:18.013Z,28.60
2018-04-11T10:17:28.518Z,18.90
2018-04-11T10:20:38.809Z,27.13
2018-04-11T10:23:48.799Z,31.95
2018-04-11T10:26:59.022Z,30.50
2018-04-11T10:30:09.271Z,24.42
2018-04-11T10:33:20.094Z,23.05
2018-04-11T10:36:30.435Z,29.67
2018-04-11T10:39:40.361Z,22.35
2018-04-11T10:42:50.267Z,28.05
2018-04-11T10:46:01.237Z,26.40
2018-04-11T10:49:11.452Z,27.77
2018-04-11T10:52:22.954Z,30.08
2018-04-11T10:55:33.525Z,21.55
2018-04-11T10:58:43.738Z,27.17
2018-04-11T11:01:53.908Z,30.25
2018-04-11T11:05:04.139Z,35.05
2018-04-11T11:08:14.256Z,26.90
2018-04-11T11:11:24.189Z,34.75
2018-04-11T11:14:33.700Z,29.00
2018-04-11T11:17:43.971Z,38.05
2018-04-11T11:20:58.510Z,12.73
2018-04-11T11:24:08.722Z,23.77
2018-04-11T11:27:18.804Z,23.62
2018-04-11T11:30:28.684Z,24.75
2018-04-11T11:33:39.547Z,25.00
2018-04-11T11:36:49.135Z,25.80
2018-04-11T11:39:59.208Z,31.70
2018-04-11T11:43:09.936Z,23.10
2018-04-11T11:46:19.961Z,32.33
2018-04-11T11:49:29.966Z,32.17
2018-04-11T11:52:39.941Z,21.48
2018-04-11T11:55:50.175Z,25.67
2018-04-11T11:59:00.128Z,28.20
2018-04-11T12:02:09.795Z,22.30
2018-04-11T12:05:20.083Z,25.95
2018-04-11T12:08:30.135Z,28.08
2018-04-11T12:11:40.201Z,25.37
2018-04-11T12:14:50.201Z,38.42
2018-04-11T12:18:01.244Z,25.88
2018-04-11T12:21:11.418Z,26.75
2018-04-11T12:24:21.856Z,23.02
2018-04-11T12:27:31.757Z,26.87
2018-04-11T12:30:42.021Z,26.12
2018-04-11T12:33:52.046Z,22.95
2018-04-11T12:37:02.486Z,29.12
2018-04-11T12:40:12.362Z,28.95
2018-04-11T12:43:22.616Z,20.77
2018-04-11T12:46:32.490Z,21.48
2018-04-11T12:49:43.484Z,28.40
2018-04-11T12:52:53.951Z,29.12
2018-04-11T12:56:04.184Z,27.65
2018-04-11T12:59:14.682Z,22.58
2018-04-11T13:02:25.018Z,33.13
2018-04-11T13:05:35.887Z,23.35
2018-04-11T13:08:45.824Z,28.62
2018-04-11T13:11:55.678Z,24.23
2018-04-11T13:15:05.852Z,18.48
2018-04-11T13:18:16.052Z,34.20
2018-04-11T13:21:27.560Z,31.90
2018-04-11T13:24:38.312Z,31.02
2018-04-11T13:27:49.073Z,29.92
2018-04-11T13:30:59.310Z,31.15
2018-04-11T13:34:09.674Z,37.33
2018-04-11T13:37:19.839Z,33.10
2018-04-11T13:40:30.229Z,34.13
2018-04-11T13:43:40.575Z,29.37
2018-04-11T13:46:50.379Z,32.05
2018-04-11T13:50:00.509Z,38.58
2018-04-11T13:53:10.129Z,29.45
2018-04-11T13:56:20.345Z,25.42
2018-04-11T13:59:30.456Z,33.90
2018-04-11T14:02:40.421Z,28.85
2018-04-11T14:05:50.215Z,39.05
2018-04-11T14:09:00.658Z,31.12
2018-04-11T14:12:10.494Z,33.30
2018-04-11T14:15:20.783Z,39.42
2018-04-11T14:18:30.818Z,28.58
2018-04-11T14:21:40.483Z,28.48
2018-04-11T14:24:50.749Z,32.67
2018-04-11T14:28:01.647Z,30.20
2018-04-11T14:31:12.260Z,30.25
2018-04-11T14:34:23.028Z,26.77
2018-04-11T14:37:33.671Z,38.42
2018-04-11T14:40:44.791Z,33.25
2018-04-11T14:43:54.550Z,37.00
2018-04-11T14:47:05.046Z,33.28
2018-04-11T14:50:15.032Z,25.75
2018-04-11T14:53:25.296Z,27.70
2018-04-11T14:56:35.774Z,32.97
2018-04-11T14:59:46.264Z,30.27
2018-04-11T15:02:56.044Z,34.97
2018-04-11T15:06:05.915Z,29.67
2018-04-11T15:09:16.105Z,31.73
2018-04-11T15:12:25.846Z,30.17
2018-04-11T15:15:36.398Z,31.45
2018-04-11T15:18:46.611Z,25.25
2018-04-11T15:21:56.519Z,26.87
2018-04-11T15:25:06.427Z,31.23
2018-04-11T15:28:16.243Z,29.48
2018-04-11T15:31:26.144Z,36.22
2018-04-11T15:34:35.921Z,21.70
2018-04-11T15:37:46.982Z,24.42
2018-04-11T15:40:57.742Z,23.30
2018-04-11T15:44:08.818Z,20.15
2018-04-11T15:47:19.203Z,17.27
2018-04-11T15:50:29.062Z,19.08
2018-04-11T15:53:39.049Z,19.90
2018-04-11T15:56:48.870Z,26.65
2018-04-11T15:59:58.926Z,23.62
2018-04-11T16:03:09.699Z,19.87
2018-04-11T16:06:20.404Z,19.73
2018-04-11T16:09:30.361Z,33.55
2018-04-11T16:12:40.933Z,21.83
2018-04-11T16:15:51.277Z,25.23
2018-04-11T16:19:01.077Z,28.52
2018-04-11T16:22:11.900Z,19.35
2018-04-11T16:25:21.973Z,18.23
2018-04-11T16:28:31.678Z,20.75
2018-04-11T16:31:41.850Z,18.08
2018-04-11T16:34:52.301Z,23.00
2018-04-11T16:38:02.664Z,24.00
2018-04-11T16:41:13.034Z,26.42
2018-04-11T16:44:23.673Z,41.58
2018-04-11T16:47:34.155Z,24.85
2018-04-11T16:50:43.953Z,31.00
2018-04-11T16:53:53.466Z,20.00
2018-04-11T16:57:04.044Z,18.67
2018-04-11T17:00:14.813Z,20.05
2018-04-11T17:03:25.973Z,20.17
2018-04-11T17:06:35.849Z,21.70
2018-04-11T17:09:46.259Z,20.60
2018-04-11T17:12:57.451Z,22.70
2018-04-11T17:16:06.671Z,21.73
2018-04-11T17:19:16.206Z,22.30
2018-04-11T17:22:37.459Z,19.98
2018-04-11T17:25:59.203Z,21.55
2018-04-11T17:29:20.142Z,24.12
2018-04-11T17:32:29.732Z,23.92
2018-04-11T17:35:39.600Z,20.20
2018-04-11T17:38:49.779Z,22.83
2018-04-11T17:42:00.554Z,19.48
2018-04-11T17:45:10.212Z,24.20
2018-04-11T17:48:21.242Z,18.92
2018-04-11T17:51:31.668Z,24.02
2018-04-11T17:54:41.561Z,23.52
2018-04-11T17:57:51.813Z,17.33
2018-04-11T18:01:02.034Z,23.08
2018-04-11T18:04:12.051Z,23.60
2018-04-11T18:07:22.188Z,19.40
2018-04-11T18:10:32.174Z,22.13
2018-04-11T18:13:42.246Z,26.08
2018-04-11T18:16:52.964Z,25.27
2018-04-11T18:20:03.210Z,23.10
2018-04-11T18:23:13.065Z,20.92
2018-04-11T18:26:22.991Z,29.48
2018-04-11T18:29:33.908Z,19.50
2018-04-11T18:32:44.158Z,26.15
2018-04-11T18:35:54.134Z,29.73
2018-04-11T18:39:03.765Z,21.98
2018-04-11T18:42:14.235Z,23.83
2018-04-11T18:45:24.587Z,28.35
2018-04-11T18:48:34.742Z,30.58
2018-04-11T18:51:45.133Z,27.83
2018-04-11T18:54:54.991Z,23.90
2018-04-11T18:58:05.059Z,29.48
2018-04-11T19:01:15.074Z,28.70
2018-04-11T19:04:25.478Z,26.33
2018-04-11T19:07:35.768Z,35.13
2018-04-11T19:10:46.062Z,23.77
2018-04-11T19:13:56.458Z,26.42
2018-04-11T19:17:06.553Z,26.62
2018-04-11T19:20:16.427Z,28.33
2018-04-11T19:23:27.112Z,30.52
2018-04-11T19:26:37.509Z,28.17
2018-04-11T19:29:48.150Z,29.48
2018-04-11T19:32:58.209Z,24.02
2018-04-11T19:36:08.223Z,24.25
2018-04-11T19:39:19.053Z,34.80
2018-04-11T19:42:29.449Z,29.42
2018-04-11T19:45:39.954Z,26.55
2018-04-11T19:48:50.070Z,20.00
2018-04-11T19:52:00.059Z,23.33
2018-04-11T19:55:10.396Z,30.75
2018-04-11T19:58:20.374Z,23.92
2018-04-11T20:01:30.241Z,35.45
2018-04-11T20:04:40.871Z,26.25
2018-04-11T20:07:51.293Z,34.45
2018-04-11T20:11:01.941Z,24.35
2018-04-11T20:14:11.857Z,32.22
2018-04-11T20:17:23.001Z,22.85
2018-04-11T20:20:33.041Z,29.48
2018-04-11T20:23:43.177Z,36.85
2018-04-11T20:26:53.218Z,24.65
2018-04-11T20:30:03.429Z,26.25
2018-04-11T20:33:13.637Z,28.65
2018-04-11T20:36:23.669Z,25.30
2018-04-11T20:39:33.961Z,27.95
2018-04-11T20:42:43.709Z,36.22
2018-04-11T20:45:54.052Z,32.22
2018-04-11T20:49:04.874Z,22.08
2018-04-11T20:52:14.690Z,23.92
2018-04-11T20:55:24.523Z,25.02
2018-04-11T20:58:35.107Z,19.95
2018-04-11T21:01:46.037Z,20.77
2018-04-11T21:04:55.845Z,21.58
2018-04-11T21:08:06.170Z,15.90
2018-04-11T21:11:16.477Z,20.15
2018-04-11T21:14:27.163Z,19.25
2018-04-11T21:17:37.881Z,17.65
2018-04-11T21:20:47.945Z,14.13
2018-04-11T21:23:57.941Z,14.68
2018-04-11T21:27:08.683Z,15.07
2018-04-11T21:30:19.256Z,16.15
2018-04-11T21:33:29.303Z,10.27
2018-04-11T21:36:39.481Z,21.00
2018-04-11T21:39:50.067Z,21.05
2018-04-11T21:42:59.829Z,15.38
2018-04-11T21:46:09.607Z,19.08
2018-04-11T21:49:20.729Z,15.43
2018-04-11T21:52:31.346Z,13.73
2018-04-11T21:55:41.038Z,12.65
2018-04-11T21:58:50.801Z,18.62
2018-04-11T22:02:01.027Z,12.73
2018-04-11T22:05:11.161Z,15.43
2018-04-11T22:08:20.924Z,14.87
2018-04-11T22:11:31.080Z,16.48
2018-04-11T22:14:41.405Z,13.57
2018-04-11T22:17:51.603Z,13.38
2018-04-11T22:21:01.529Z,20.23
2018-04-11T22:24:11.579Z,16.73
2018-04-11T22:27:21.320Z,14.77
2018-04-11T22:30:31.456Z,21.17
2018-04-11T22:33:42.102Z,19.10
2018-04-11T22:36:52.820Z,14.95
2018-04-11T22:40:02.599Z,15.20
2018-04-11T22:43:12.699Z,17.55
2018-04-11T22:46:22.817Z,16.98
2018-04-11T22:49:32.903Z,14.40
2018-04-11T22:52:43.047Z,10.60
2018-04-11T22:55:53.498Z,13.82
2018-04-11T22:59:03.832Z,13.50
2018-04-11T23:02:14.748Z,13.60
2018-04-11T23:05:25.420Z,14.73
2018-04-11T23:08:35.827Z,15.70
2018-04-11T23:11:45.607Z,14.55
2018-04-11T23:14:55.507Z,11.12
2018-04-11T23:18:05.542Z,10.65
2018-04-11T23:21:16.051Z,14.85
2018-04-11T23:24:26.172Z,14.95
2018-04-11T23:27:36.674Z,10.27
2018-04-11T23:30:46.538Z,11.10
2018-04-11T23:33:56.511Z,11.38
2018-04-11T23:37:06.488Z,12.32
2018-04-11T23:40:16.454Z,13.95
2018-04-11T23:43:26.222Z,12.15
2018-04-11T23:46:35.872Z,12.15
2018-04-11T23:49:46.326Z,12.80
2018-04-11T23:52:56.368Z,11.40
2018-04-11T23:56:06.239Z,13.48
2018-04-11T23:59:16.419Z,13.50
